sensor_id;sensor_type;location;lat;lon;timestamp;temperature;humidity
15107;DHT22;7654;45.308;-75.096;2023-07-29T00:01:25;22.60;99.90
15107;DHT22;7654;45.308;-75.096;2023-07-29T00:03:58;22.60;99.90
15107;DHT22;7654;45.308;-75.096;2023-07-29T00:06:29;22.50;99.90
15107;DHT22;7654;45.308;-75.096;2023-07-29T00:09:00;22.50;99.90
15107;DHT22;7654;45.308;-75.096;2023-07-29T00:11:31;22.50;99.90
15107;DHT22;7654;45.308;-75.096;2023-07-29T00:14:05;22.50;99.90
15107;DHT22;7654;45.308;-75.096;2023-07-29T00:16:35;22.50;99.90
15107;DHT22;7654;45.308;-75.096;2023-07-29T00:19:07;22.50;99.90
15107;DHT22;7654;45.308;-75.096;2023-07-29T00:21:37;22.50;99.90
15107;DHT22;7654;45.308;-75.096;2023-07-29T00:24:09;22.50;99.90
15107;DHT22;7654;45.308;-75.096;2023-07-29T00:26:41;22.40;99.90
15107;DHT22;7654;45.308;-75.096;2023-07-29T00:29:13;22.40;99.90
15107;DHT22;7654;45.308;-75.096;2023-07-29T00:31:44;22.50;99.90
15107;DHT22;7654;45.308;-75.096;2023-07-29T00:34:14;22.60;99.90
15107;DHT22;7654;45.308;-75.096;2023-07-29T00:36:48;22.60;99.90
15107;DHT22;7654;45.308;-75.096;2023-07-29T00:39:19;22.60;99.90
15107;DHT22;7654;45.308;-75.096;2023-07-29T00:41:51;22.60;99.90
15107;DHT22;7654;45.308;-75.096;2023-07-29T00:44:24;22.60;99.90
15107;DHT22;7654;45.308;-75.096;2023-07-29T00:46:55;22.60;99.90
15107;DHT22;7654;45.308;-75.096;2023-07-29T00:49:25;22.50;99.90
15107;DHT22;7654;45.308;-75.096;2023-07-29T00:51:56;22.60;99.90
15107;DHT22;7654;45.308;-75.096;2023-07-29T00:54:27;22.50;99.90
15107;DHT22;7654;45.308;-75.096;2023-07-29T00:56:58;22.60;99.90
15107;DHT22;7654;45.308;-75.096;2023-07-29T00:59:31;22.60;99.90
15107;DHT22;7654;45.308;-75.096;2023-07-29T01:02:03;22.70;99.90
15107;DHT22;7654;45.308;-75.096;2023-07-29T01:04:33;22.60;99.90
15107;DHT22;7654;45.308;-75.096;2023-07-29T01:07:09;22.50;99.90
15107;DHT22;7654;45.308;-75.096;2023-07-29T01:09:48;22.50;99.90
15107;DHT22;7654;45.308;-75.096;2023-07-29T01:12:23;22.30;99.90
15107;DHT22;7654;45.308;-75.096;2023-07-29T01:15:04;22.30;99.90
15107;DHT22;7654;45.308;-75.096;2023-07-29T01:17:39;22.20;99.90
15107;DHT22;7654;45.308;-75.096;2023-07-29T01:20:14;22.10;99.90
15107;DHT22;7654;45.308;-75.096;2023-07-29T01:22:45;22.10;99.90
15107;DHT22;7654;45.308;-75.096;2023-07-29T01:25:17;22.00;99.90
15107;DHT22;7654;45.308;-75.096;2023-07-29T01:27:49;22.00;99.90
15107;DHT22;7654;45.308;-75.096;2023-07-29T01:30:22;22.00;99.90
15107;DHT22;7654;45.308;-75.096;2023-07-29T01:32:59;22.00;99.90
15107;DHT22;7654;45.308;-75.096;2023-07-29T01:35:39;21.90;99.90
15107;DHT22;7654;45.308;-75.096;2023-07-29T01:38:16;21.90;99.90
15107;DHT22;7654;45.308;-75.096;2023-07-29T01:40:51;21.90;99.90
15107;DHT22;7654;45.308;-75.096;2023-07-29T01:43:25;21.90;99.90
15107;DHT22;7654;45.308;-75.096;2023-07-29T01:46:02;21.90;99.90
15107;DHT22;7654;45.308;-75.096;2023-07-29T01:48:37;21.90;99.90
15107;DHT22;7654;45.308;-75.096;2023-07-29T01:51:10;21.90;99.90
15107;DHT22;7654;45.308;-75.096;2023-07-29T01:53:40;22.00;99.90
15107;DHT22;7654;45.308;-75.096;2023-07-29T01:56:12;22.00;99.90
15107;DHT22;7654;45.308;-75.096;2023-07-29T01:58:43;22.00;99.90
15107;DHT22;7654;45.308;-75.096;2023-07-29T02:01:13;21.90;99.90
15107;DHT22;7654;45.308;-75.096;2023-07-29T02:03:44;21.90;99.90
15107;DHT22;7654;45.308;-75.096;2023-07-29T02:06:16;21.80;99.90
15107;DHT22;7654;45.308;-75.096;2023-07-29T02:08:47;21.70;99.90
15107;DHT22;7654;45.308;-75.096;2023-07-29T02:11:20;21.60;99.90
15107;DHT22;7654;45.308;-75.096;2023-07-29T02:13:56;21.60;99.90
15107;DHT22;7654;45.308;-75.096;2023-07-29T02:16:26;21.50;99.90
15107;DHT22;7654;45.308;-75.096;2023-07-29T02:18:57;21.40;99.90
15107;DHT22;7654;45.308;-75.096;2023-07-29T02:21:30;21.30;99.90
15107;DHT22;7654;45.308;-75.096;2023-07-29T02:24:02;21.30;99.90
15107;DHT22;7654;45.308;-75.096;2023-07-29T02:26:39;21.30;99.90
15107;DHT22;7654;45.308;-75.096;2023-07-29T02:29:10;21.20;99.90
15107;DHT22;7654;45.308;-75.096;2023-07-29T02:31:41;21.20;99.90
15107;DHT22;7654;45.308;-75.096;2023-07-29T02:34:13;21.20;99.90
15107;DHT22;7654;45.308;-75.096;2023-07-29T02:36:44;21.20;99.90
15107;DHT22;7654;45.308;-75.096;2023-07-29T02:39:14;21.20;99.90
15107;DHT22;7654;45.308;-75.096;2023-07-29T02:41:46;21.10;99.90
15107;DHT22;7654;45.308;-75.096;2023-07-29T02:44:17;21.00;99.90
15107;DHT22;7654;45.308;-75.096;2023-07-29T02:46:47;21.00;99.90
15107;DHT22;7654;45.308;-75.096;2023-07-29T02:49:18;21.00;99.90
15107;DHT22;7654;45.308;-75.096;2023-07-29T02:51:49;21.00;99.90
15107;DHT22;7654;45.308;-75.096;2023-07-29T02:54:19;21.00;99.90
15107;DHT22;7654;45.308;-75.096;2023-07-29T02:56:52;20.90;99.90
15107;DHT22;7654;45.308;-75.096;2023-07-29T02:59:23;20.90;99.90
15107;DHT22;7654;45.308;-75.096;2023-07-29T03:01:54;20.90;99.90
15107;DHT22;7654;45.308;-75.096;2023-07-29T03:04:25;20.90;99.90
15107;DHT22;7654;45.308;-75.096;2023-07-29T03:06:55;20.90;99.90
15107;DHT22;7654;45.308;-75.096;2023-07-29T03:09:28;20.90;99.90
15107;DHT22;7654;45.308;-75.096;2023-07-29T03:12:00;20.90;99.90
15107;DHT22;7654;45.308;-75.096;2023-07-29T03:14:30;20.90;99.90
15107;DHT22;7654;45.308;-75.096;2023-07-29T03:17:03;20.90;99.90
15107;DHT22;7654;45.308;-75.096;2023-07-29T03:19:34;20.90;99.90
15107;DHT22;7654;45.308;-75.096;2023-07-29T03:22:05;20.90;99.90
15107;DHT22;7654;45.308;-75.096;2023-07-29T03:24:36;20.90;99.90
15107;DHT22;7654;45.308;-75.096;2023-07-29T03:27:08;20.80;99.90
15107;DHT22;7654;45.308;-75.096;2023-07-29T03:29:39;20.80;99.90
15107;DHT22;7654;45.308;-75.096;2023-07-29T03:32:11;20.80;99.90
15107;DHT22;7654;45.308;-75.096;2023-07-29T03:34:41;20.70;99.90
15107;DHT22;7654;45.308;-75.096;2023-07-29T03:37:12;20.70;99.90
15107;DHT22;7654;45.308;-75.096;2023-07-29T03:39:42;20.60;99.90
15107;DHT22;7654;45.308;-75.096;2023-07-29T03:42:15;20.60;99.90
15107;DHT22;7654;45.308;-75.096;2023-07-29T03:44:46;20.40;99.90
15107;DHT22;7654;45.308;-75.096;2023-07-29T03:47:16;20.30;99.90
15107;DHT22;7654;45.308;-75.096;2023-07-29T03:49:47;20.30;99.90
15107;DHT22;7654;45.308;-75.096;2023-07-29T03:52:17;20.20;99.90
15107;DHT22;7654;45.308;-75.096;2023-07-29T03:54:48;20.20;99.90
15107;DHT22;7654;45.308;-75.096;2023-07-29T03:57:20;20.10;99.90
15107;DHT22;7654;45.308;-75.096;2023-07-29T03:59:51;20.10;99.90
15107;DHT22;7654;45.308;-75.096;2023-07-29T04:02:22;20.10;99.90
15107;DHT22;7654;45.308;-75.096;2023-07-29T04:04:53;20.00;99.90
15107;DHT22;7654;45.308;-75.096;2023-07-29T04:07:23;20.00;99.90
15107;DHT22;7654;45.308;-75.096;2023-07-29T04:09:55;19.90;99.90
15107;DHT22;7654;45.308;-75.096;2023-07-29T04:12:28;19.90;99.90
15107;DHT22;7654;45.308;-75.096;2023-07-29T04:14:59;19.90;99.90
15107;DHT22;7654;45.308;-75.096;2023-07-29T04:17:29;20.00;99.90
15107;DHT22;7654;45.308;-75.096;2023-07-29T04:20:00;20.00;99.90
15107;DHT22;7654;45.308;-75.096;2023-07-29T04:22:31;20.00;99.90
15107;DHT22;7654;45.308;-75.096;2023-07-29T04:25:01;20.00;99.90
15107;DHT22;7654;45.308;-75.096;2023-07-29T04:27:35;19.90;99.90
15107;DHT22;7654;45.308;-75.096;2023-07-29T04:30:06;19.90;99.90
15107;DHT22;7654;45.308;-75.096;2023-07-29T04:32:37;19.90;99.90
15107;DHT22;7654;45.308;-75.096;2023-07-29T04:35:08;19.90;99.90
15107;DHT22;7654;45.308;-75.096;2023-07-29T04:37:39;19.90;99.90
15107;DHT22;7654;45.308;-75.096;2023-07-29T04:40:10;20.00;99.90
15107;DHT22;7654;45.308;-75.096;2023-07-29T04:42:42;20.00;99.90
15107;DHT22;7654;45.308;-75.096;2023-07-29T04:45:13;20.00;99.90
15107;DHT22;7654;45.308;-75.096;2023-07-29T04:47:44;20.20;99.90
15107;DHT22;7654;45.308;-75.096;2023-07-29T04:50:15;20.30;99.90
15107;DHT22;7654;45.308;-75.096;2023-07-29T04:52:45;20.40;99.90
15107;DHT22;7654;45.308;-75.096;2023-07-29T04:55:16;20.30;99.90
15107;DHT22;7654;45.308;-75.096;2023-07-29T04:57:48;20.20;99.90
15107;DHT22;7654;45.308;-75.096;2023-07-29T05:00:19;20.10;99.90
15107;DHT22;7654;45.308;-75.096;2023-07-29T05:02:50;20.00;99.90
15107;DHT22;7654;45.308;-75.096;2023-07-29T05:05:21;19.90;99.90
15107;DHT22;7654;45.308;-75.096;2023-07-29T05:07:52;19.80;99.90
15107;DHT22;7654;45.308;-75.096;2023-07-29T05:10:22;19.70;99.90
15107;DHT22;7654;45.308;-75.096;2023-07-29T05:12:55;19.60;99.90
15107;DHT22;7654;45.308;-75.096;2023-07-29T05:15:25;19.50;99.90
15107;DHT22;7654;45.308;-75.096;2023-07-29T05:17:56;19.50;99.90
15107;DHT22;7654;45.308;-75.096;2023-07-29T05:20:28;19.40;99.90
15107;DHT22;7654;45.308;-75.096;2023-07-29T05:22:58;19.30;99.90
15107;DHT22;7654;45.308;-75.096;2023-07-29T05:25:29;19.20;99.90
15107;DHT22;7654;45.308;-75.096;2023-07-29T05:28:01;19.20;99.90
15107;DHT22;7654;45.308;-75.096;2023-07-29T05:30:33;19.10;99.90
15107;DHT22;7654;45.308;-75.096;2023-07-29T05:33:05;19.00;99.90
15107;DHT22;7654;45.308;-75.096;2023-07-29T05:35:37;18.90;99.90
15107;DHT22;7654;45.308;-75.096;2023-07-29T05:38:08;18.90;99.90
15107;DHT22;7654;45.308;-75.096;2023-07-29T05:40:39;18.90;99.90
15107;DHT22;7654;45.308;-75.096;2023-07-29T05:43:11;18.80;99.90
15107;DHT22;7654;45.308;-75.096;2023-07-29T05:45:43;18.80;99.90
15107;DHT22;7654;45.308;-75.096;2023-07-29T05:48:13;18.70;99.90
15107;DHT22;7654;45.308;-75.096;2023-07-29T05:50:43;18.60;99.90
15107;DHT22;7654;45.308;-75.096;2023-07-29T05:53:14;18.60;99.90
15107;DHT22;7654;45.308;-75.096;2023-07-29T05:55:45;18.50;99.90
15107;DHT22;7654;45.308;-75.096;2023-07-29T05:58:17;18.30;99.90
15107;DHT22;7654;45.308;-75.096;2023-07-29T06:00:48;18.20;99.90
15107;DHT22;7654;45.308;-75.096;2023-07-29T06:03:19;18.20;99.90
15107;DHT22;7654;45.308;-75.096;2023-07-29T06:05:50;18.10;99.90
15107;DHT22;7654;45.308;-75.096;2023-07-29T06:08:21;18.00;99.90
15107;DHT22;7654;45.308;-75.096;2023-07-29T06:10:52;18.00;99.90
15107;DHT22;7654;45.308;-75.096;2023-07-29T06:13:24;17.90;99.90
15107;DHT22;7654;45.308;-75.096;2023-07-29T06:15:55;17.80;99.90
15107;DHT22;7654;45.308;-75.096;2023-07-29T06:18:26;17.80;99.90
15107;DHT22;7654;45.308;-75.096;2023-07-29T06:20:56;17.70;99.90
15107;DHT22;7654;45.308;-75.096;2023-07-29T06:23:27;17.60;99.90
15107;DHT22;7654;45.308;-75.096;2023-07-29T06:25:58;17.50;99.90
15107;DHT22;7654;45.308;-75.096;2023-07-29T06:28:30;17.50;99.90
15107;DHT22;7654;45.308;-75.096;2023-07-29T06:31:01;17.50;99.90
15107;DHT22;7654;45.308;-75.096;2023-07-29T06:33:31;17.40;99.90
15107;DHT22;7654;45.308;-75.096;2023-07-29T06:36:02;17.40;99.90
15107;DHT22;7654;45.308;-75.096;2023-07-29T06:38:33;17.30;99.90
15107;DHT22;7654;45.308;-75.096;2023-07-29T06:41:04;17.20;99.90
15107;DHT22;7654;45.308;-75.096;2023-07-29T06:43:36;17.20;99.90
15107;DHT22;7654;45.308;-75.096;2023-07-29T06:46:07;17.10;99.90
15107;DHT22;7654;45.308;-75.096;2023-07-29T06:48:37;17.10;99.90
15107;DHT22;7654;45.308;-75.096;2023-07-29T06:51:08;17.10;99.90
15107;DHT22;7654;45.308;-75.096;2023-07-29T06:53:38;17.10;99.90
15107;DHT22;7654;45.308;-75.096;2023-07-29T06:56:09;17.00;99.90
15107;DHT22;7654;45.308;-75.096;2023-07-29T06:58:41;17.00;99.90
15107;DHT22;7654;45.308;-75.096;2023-07-29T07:01:12;16.90;99.90
15107;DHT22;7654;45.308;-75.096;2023-07-29T07:03:43;16.90;99.90
15107;DHT22;7654;45.308;-75.096;2023-07-29T07:06:13;16.80;99.90
15107;DHT22;7654;45.308;-75.096;2023-07-29T07:08:44;16.80;99.90
15107;DHT22;7654;45.308;-75.096;2023-07-29T07:11:14;16.80;99.90
15107;DHT22;7654;45.308;-75.096;2023-07-29T07:13:47;16.70;99.90
15107;DHT22;7654;45.308;-75.096;2023-07-29T07:16:18;16.70;99.90
15107;DHT22;7654;45.308;-75.096;2023-07-29T07:18:48;16.70;99.90
15107;DHT22;7654;45.308;-75.096;2023-07-29T07:21:19;16.60;99.90
15107;DHT22;7654;45.308;-75.096;2023-07-29T07:23:50;16.60;99.90
15107;DHT22;7654;45.308;-75.096;2023-07-29T07:26:20;16.50;99.90
15107;DHT22;7654;45.308;-75.096;2023-07-29T07:28:53;16.40;99.90
15107;DHT22;7654;45.308;-75.096;2023-07-29T07:31:23;16.40;99.90
15107;DHT22;7654;45.308;-75.096;2023-07-29T07:33:54;16.30;99.90
15107;DHT22;7654;45.308;-75.096;2023-07-29T07:36:25;16.30;99.90
15107;DHT22;7654;45.308;-75.096;2023-07-29T07:38:55;16.30;99.90
15107;DHT22;7654;45.308;-75.096;2023-07-29T07:41:26;16.20;99.90
15107;DHT22;7654;45.308;-75.096;2023-07-29T07:43:58;16.20;99.90
15107;DHT22;7654;45.308;-75.096;2023-07-29T07:46:29;16.20;99.90
15107;DHT22;7654;45.308;-75.096;2023-07-29T07:49:00;16.10;99.90
15107;DHT22;7654;45.308;-75.096;2023-07-29T07:51:31;16.10;99.90
15107;DHT22;7654;45.308;-75.096;2023-07-29T07:54:01;15.90;99.90
15107;DHT22;7654;45.308;-75.096;2023-07-29T07:56:32;15.80;99.90
15107;DHT22;7654;45.308;-75.096;2023-07-29T07:59:05;15.80;99.90
15107;DHT22;7654;45.308;-75.096;2023-07-29T08:01:37;15.80;99.90
15107;DHT22;7654;45.308;-75.096;2023-07-29T08:04:08;15.80;99.90
15107;DHT22;7654;45.308;-75.096;2023-07-29T08:06:39;15.80;99.90
15107;DHT22;7654;45.308;-75.096;2023-07-29T08:09:10;15.70;99.90
15107;DHT22;7654;45.308;-75.096;2023-07-29T08:11:40;15.70;99.90
15107;DHT22;7654;45.308;-75.096;2023-07-29T08:14:13;15.70;99.90
15107;DHT22;7654;45.308;-75.096;2023-07-29T08:16:44;15.70;99.90
15107;DHT22;7654;45.308;-75.096;2023-07-29T08:19:15;15.70;99.90
15107;DHT22;7654;45.308;-75.096;2023-07-29T08:21:49;15.70;99.90
15107;DHT22;7654;45.308;-75.096;2023-07-29T08:24:19;15.60;99.90
15107;DHT22;7654;45.308;-75.096;2023-07-29T08:26:50;15.60;99.90
15107;DHT22;7654;45.308;-75.096;2023-07-29T08:29:22;15.60;99.90
15107;DHT22;7654;45.308;-75.096;2023-07-29T08:31:52;15.70;99.90
15107;DHT22;7654;45.308;-75.096;2023-07-29T08:34:23;15.70;99.90
15107;DHT22;7654;45.308;-75.096;2023-07-29T08:36:55;15.70;99.90
15107;DHT22;7654;45.308;-75.096;2023-07-29T08:39:25;15.80;99.90
15107;DHT22;7654;45.308;-75.096;2023-07-29T08:42:01;15.70;99.90
15107;DHT22;7654;45.308;-75.096;2023-07-29T08:44:40;15.80;99.90
15107;DHT22;7654;45.308;-75.096;2023-07-29T08:47:11;15.70;99.90
15107;DHT22;7654;45.308;-75.096;2023-07-29T08:49:43;15.60;99.90
15107;DHT22;7654;45.308;-75.096;2023-07-29T08:52:15;15.60;99.90
15107;DHT22;7654;45.308;-75.096;2023-07-29T08:54:46;15.60;99.90
15107;DHT22;7654;45.308;-75.096;2023-07-29T08:57:17;15.60;99.90
15107;DHT22;7654;45.308;-75.096;2023-07-29T08:59:51;15.60;99.90
15107;DHT22;7654;45.308;-75.096;2023-07-29T09:02:21;15.70;99.90
15107;DHT22;7654;45.308;-75.096;2023-07-29T09:04:52;15.70;99.90
15107;DHT22;7654;45.308;-75.096;2023-07-29T09:07:22;15.70;99.90
15107;DHT22;7654;45.308;-75.096;2023-07-29T09:09:53;15.70;99.90
15107;DHT22;7654;45.308;-75.096;2023-07-29T09:12:24;15.70;99.90
15107;DHT22;7654;45.308;-75.096;2023-07-29T09:14:56;15.60;99.90
15107;DHT22;7654;45.308;-75.096;2023-07-29T09:17:31;15.60;99.90
15107;DHT22;7654;45.308;-75.096;2023-07-29T09:20:03;15.60;99.90
15107;DHT22;7654;45.308;-75.096;2023-07-29T09:22:33;15.70;99.90
15107;DHT22;7654;45.308;-75.096;2023-07-29T09:25:05;15.70;99.90
15107;DHT22;7654;45.308;-75.096;2023-07-29T09:27:35;15.70;99.90
15107;DHT22;7654;45.308;-75.096;2023-07-29T09:30:15;15.60;99.90
15107;DHT22;7654;45.308;-75.096;2023-07-29T09:32:46;15.60;99.90
15107;DHT22;7654;45.308;-75.096;2023-07-29T09:35:17;15.50;99.90
15107;DHT22;7654;45.308;-75.096;2023-07-29T09:37:47;15.50;99.90
15107;DHT22;7654;45.308;-75.096;2023-07-29T09:40:18;15.50;99.90
15107;DHT22;7654;45.308;-75.096;2023-07-29T09:42:49;15.40;99.90
15107;DHT22;7654;45.308;-75.096;2023-07-29T09:45:26;15.40;99.90
15107;DHT22;7654;45.308;-75.096;2023-07-29T09:47:58;15.40;99.90
15107;DHT22;7654;45.308;-75.096;2023-07-29T09:50:28;15.40;99.90
15107;DHT22;7654;45.308;-75.096;2023-07-29T09:52:59;15.50;99.90
15107;DHT22;7654;45.308;-75.096;2023-07-29T09:55:33;15.50;99.90
15107;DHT22;7654;45.308;-75.096;2023-07-29T09:58:04;15.50;99.90
15107;DHT22;7654;45.308;-75.096;2023-07-29T10:00:38;15.60;99.90
15107;DHT22;7654;45.308;-75.096;2023-07-29T10:03:09;15.60;99.90
15107;DHT22;7654;45.308;-75.096;2023-07-29T10:05:40;15.70;99.90
15107;DHT22;7654;45.308;-75.096;2023-07-29T10:08:11;15.70;99.90
15107;DHT22;7654;45.308;-75.096;2023-07-29T10:10:43;15.80;99.90
15107;DHT22;7654;45.308;-75.096;2023-07-29T10:13:14;15.80;99.90
15107;DHT22;7654;45.308;-75.096;2023-07-29T10:15:47;15.80;99.90
15107;DHT22;7654;45.308;-75.096;2023-07-29T10:18:19;15.80;99.90
15107;DHT22;7654;45.308;-75.096;2023-07-29T10:20:51;15.80;99.90
15107;DHT22;7654;45.308;-75.096;2023-07-29T10:23:24;15.90;99.90
15107;DHT22;7654;45.308;-75.096;2023-07-29T10:26:00;15.90;99.90
15107;DHT22;7654;45.308;-75.096;2023-07-29T10:28:33;15.90;99.90
15107;DHT22;7654;45.308;-75.096;2023-07-29T10:31:08;16.00;99.90
15107;DHT22;7654;45.308;-75.096;2023-07-29T10:33:40;16.00;99.90
15107;DHT22;7654;45.308;-75.096;2023-07-29T10:36:11;16.10;99.90
15107;DHT22;7654;45.308;-75.096;2023-07-29T10:38:42;16.10;99.90
15107;DHT22;7654;45.308;-75.096;2023-07-29T10:41:13;16.20;99.90
15107;DHT22;7654;45.308;-75.096;2023-07-29T10:43:43;16.30;99.90
15107;DHT22;7654;45.308;-75.096;2023-07-29T10:46:19;16.30;99.90
15107;DHT22;7654;45.308;-75.096;2023-07-29T10:48:55;16.40;99.90
15107;DHT22;7654;45.308;-75.096;2023-07-29T10:51:28;16.40;99.90
15107;DHT22;7654;45.308;-75.096;2023-07-29T10:54:02;16.50;99.90
15107;DHT22;7654;45.308;-75.096;2023-07-29T10:56:34;16.50;99.90
15107;DHT22;7654;45.308;-75.096;2023-07-29T10:59:31;16.50;99.90
15107;DHT22;7654;45.308;-75.096;2023-07-29T11:02:12;16.60;99.90
15107;DHT22;7654;45.308;-75.096;2023-07-29T11:04:49;16.70;99.90
15107;DHT22;7654;45.308;-75.096;2023-07-29T11:07:25;16.70;99.90
15107;DHT22;7654;45.308;-75.096;2023-07-29T11:10:00;16.70;99.90
15107;DHT22;7654;45.308;-75.096;2023-07-29T11:12:42;16.80;99.90
15107;DHT22;7654;45.308;-75.096;2023-07-29T11:15:16;16.90;99.90
15107;DHT22;7654;45.308;-75.096;2023-07-29T11:17:50;16.90;99.90
15107;DHT22;7654;45.308;-75.096;2023-07-29T11:20:22;16.90;99.90
15107;DHT22;7654;45.308;-75.096;2023-07-29T11:22:53;17.00;99.90
15107;DHT22;7654;45.308;-75.096;2023-07-29T11:25:25;17.00;99.90
15107;DHT22;7654;45.308;-75.096;2023-07-29T11:27:58;17.10;99.90
15107;DHT22;7654;45.308;-75.096;2023-07-29T11:30:34;17.10;99.90
15107;DHT22;7654;45.308;-75.096;2023-07-29T11:33:06;17.20;99.90
15107;DHT22;7654;45.308;-75.096;2023-07-29T11:35:36;17.20;99.90
15107;DHT22;7654;45.308;-75.096;2023-07-29T11:38:08;17.30;99.90
15107;DHT22;7654;45.308;-75.096;2023-07-29T11:40:39;17.30;99.90
15107;DHT22;7654;45.308;-75.096;2023-07-29T11:43:09;17.40;99.90
15107;DHT22;7654;45.308;-75.096;2023-07-29T11:45:47;17.40;99.90
15107;DHT22;7654;45.308;-75.096;2023-07-29T11:48:27;17.50;99.90
15107;DHT22;7654;45.308;-75.096;2023-07-29T11:50:57;17.60;99.90
15107;DHT22;7654;45.308;-75.096;2023-07-29T11:53:29;17.60;99.90
15107;DHT22;7654;45.308;-75.096;2023-07-29T11:56:00;17.60;99.90
15107;DHT22;7654;45.308;-75.096;2023-07-29T11:58:31;17.70;99.90
15107;DHT22;7654;45.308;-75.096;2023-07-29T12:01:02;17.70;99.90
15107;DHT22;7654;45.308;-75.096;2023-07-29T12:03:35;17.70;99.90
15107;DHT22;7654;45.308;-75.096;2023-07-29T12:06:08;17.70;99.90
15107;DHT22;7654;45.308;-75.096;2023-07-29T12:08:39;17.70;99.90
15107;DHT22;7654;45.308;-75.096;2023-07-29T12:11:10;17.70;99.90
15107;DHT22;7654;45.308;-75.096;2023-07-29T12:13:42;17.70;99.90
15107;DHT22;7654;45.308;-75.096;2023-07-29T12:16:17;17.60;99.90
15107;DHT22;7654;45.308;-75.096;2023-07-29T12:18:50;17.60;99.90
15107;DHT22;7654;45.308;-75.096;2023-07-29T12:21:21;17.50;99.90
15107;DHT22;7654;45.308;-75.096;2023-07-29T12:23:51;17.50;99.90
15107;DHT22;7654;45.308;-75.096;2023-07-29T12:26:28;17.60;99.90
15107;DHT22;7654;45.308;-75.096;2023-07-29T12:28:58;17.60;99.90
15107;DHT22;7654;45.308;-75.096;2023-07-29T12:31:32;17.60;99.90
15107;DHT22;7654;45.308;-75.096;2023-07-29T12:34:05;17.50;99.90
15107;DHT22;7654;45.308;-75.096;2023-07-29T12:36:44;17.50;99.90
15107;DHT22;7654;45.308;-75.096;2023-07-29T12:39:20;17.40;99.90
15107;DHT22;7654;45.308;-75.096;2023-07-29T12:41:52;17.40;99.90
15107;DHT22;7654;45.308;-75.096;2023-07-29T12:44:24;17.40;99.90
15107;DHT22;7654;45.308;-75.096;2023-07-29T12:46:54;17.40;99.90
15107;DHT22;7654;45.308;-75.096;2023-07-29T12:49:27;17.40;99.90
15107;DHT22;7654;45.308;-75.096;2023-07-29T12:51:59;17.50;99.90
15107;DHT22;7654;45.308;-75.096;2023-07-29T12:54:30;17.50;99.90
15107;DHT22;7654;45.308;-75.096;2023-07-29T12:57:01;17.60;99.90
15107;DHT22;7654;45.308;-75.096;2023-07-29T12:59:32;17.70;99.90
15107;DHT22;7654;45.308;-75.096;2023-07-29T13:02:03;17.80;99.90
15107;DHT22;7654;45.308;-75.096;2023-07-29T13:04:36;17.90;99.90
15107;DHT22;7654;45.308;-75.096;2023-07-29T13:07:07;18.00;99.90
15107;DHT22;7654;45.308;-75.096;2023-07-29T13:09:38;18.20;99.90
15107;DHT22;7654;45.308;-75.096;2023-07-29T13:12:09;18.20;99.90
15107;DHT22;7654;45.308;-75.096;2023-07-29T13:14:39;18.30;99.90
15107;DHT22;7654;45.308;-75.096;2023-07-29T13:17:10;18.30;99.90
15107;DHT22;7654;45.308;-75.096;2023-07-29T13:19:42;18.20;99.90
15107;DHT22;7654;45.308;-75.096;2023-07-29T13:22:13;18.30;99.90
15107;DHT22;7654;45.308;-75.096;2023-07-29T13:24:43;18.30;99.90
15107;DHT22;7654;45.308;-75.096;2023-07-29T13:27:14;18.30;99.90
15107;DHT22;7654;45.308;-75.096;2023-07-29T13:29:44;18.40;99.90
15107;DHT22;7654;45.308;-75.096;2023-07-29T13:32:15;18.40;99.90
15107;DHT22;7654;45.308;-75.096;2023-07-29T13:34:47;18.50;99.90
15107;DHT22;7654;45.308;-75.096;2023-07-29T13:37:18;18.60;99.90
15107;DHT22;7654;45.308;-75.096;2023-07-29T13:39:48;18.80;99.90
15107;DHT22;7654;45.308;-75.096;2023-07-29T13:42:19;18.90;99.90
15107;DHT22;7654;45.308;-75.096;2023-07-29T13:44:50;19.10;99.90
15107;DHT22;7654;45.308;-75.096;2023-07-29T13:47:21;19.40;99.90
15107;DHT22;7654;45.308;-75.096;2023-07-29T13:49:53;19.50;99.90
15107;DHT22;7654;45.308;-75.096;2023-07-29T13:52:23;19.60;99.90
15107;DHT22;7654;45.308;-75.096;2023-07-29T13:54:54;19.70;99.90
15107;DHT22;7654;45.308;-75.096;2023-07-29T13:57:25;19.60;99.90
15107;DHT22;7654;45.308;-75.096;2023-07-29T13:59:56;19.70;99.90
15107;DHT22;7654;45.308;-75.096;2023-07-29T14:02:27;19.60;99.90
15107;DHT22;7654;45.308;-75.096;2023-07-29T14:05:01;19.60;99.90
15107;DHT22;7654;45.308;-75.096;2023-07-29T14:07:32;19.60;99.90
15107;DHT22;7654;45.308;-75.096;2023-07-29T14:10:03;19.50;99.90
15107;DHT22;7654;45.308;-75.096;2023-07-29T14:12:34;19.50;99.90
15107;DHT22;7654;45.308;-75.096;2023-07-29T14:15:06;19.50;99.90
15107;DHT22;7654;45.308;-75.096;2023-07-29T14:17:37;19.40;99.90
15107;DHT22;7654;45.308;-75.096;2023-07-29T14:20:10;19.50;99.90
15107;DHT22;7654;45.308;-75.096;2023-07-29T14:22:41;19.60;99.90
15107;DHT22;7654;45.308;-75.096;2023-07-29T14:25:12;19.70;99.90
15107;DHT22;7654;45.308;-75.096;2023-07-29T14:27:42;19.80;99.90
15107;DHT22;7654;45.308;-75.096;2023-07-29T14:30:13;19.80;99.90
15107;DHT22;7654;45.308;-75.096;2023-07-29T14:32:44;19.80;99.90
15107;DHT22;7654;45.308;-75.096;2023-07-29T14:35:16;19.80;99.90
15107;DHT22;7654;45.308;-75.096;2023-07-29T14:37:47;19.70;99.90
15107;DHT22;7654;45.308;-75.096;2023-07-29T14:40:17;19.70;99.90
15107;DHT22;7654;45.308;-75.096;2023-07-29T14:42:48;19.70;99.90
15107;DHT22;7654;45.308;-75.096;2023-07-29T14:45:19;19.60;99.90
15107;DHT22;7654;45.308;-75.096;2023-07-29T14:47:49;19.70;99.90
15107;DHT22;7654;45.308;-75.096;2023-07-29T14:50:21;19.70;99.90
15107;DHT22;7654;45.308;-75.096;2023-07-29T14:52:52;19.70;99.90
15107;DHT22;7654;45.308;-75.096;2023-07-29T14:55:22;19.70;99.90
15107;DHT22;7654;45.308;-75.096;2023-07-29T14:57:53;19.60;99.90
15107;DHT22;7654;45.308;-75.096;2023-07-29T15:00:24;19.50;99.90
15107;DHT22;7654;45.308;-75.096;2023-07-29T15:02:55;19.40;99.90
15107;DHT22;7654;45.308;-75.096;2023-07-29T15:05:27;19.30;99.90
15107;DHT22;7654;45.308;-75.096;2023-07-29T15:07:57;19.20;99.90
15107;DHT22;7654;45.308;-75.096;2023-07-29T15:10:28;19.10;99.90
15107;DHT22;7654;45.308;-75.096;2023-07-29T15:13:00;19.00;99.90
15107;DHT22;7654;45.308;-75.096;2023-07-29T15:15:31;18.90;99.90
15107;DHT22;7654;45.308;-75.096;2023-07-29T15:18:01;18.80;99.90
15107;DHT22;7654;45.308;-75.096;2023-07-29T15:20:34;18.70;99.90
15107;DHT22;7654;45.308;-75.096;2023-07-29T15:23:04;18.80;99.90
15107;DHT22;7654;45.308;-75.096;2023-07-29T15:25:35;18.80;99.90
15107;DHT22;7654;45.308;-75.096;2023-07-29T15:28:07;18.80;99.90
15107;DHT22;7654;45.308;-75.096;2023-07-29T15:30:38;18.80;99.90
15107;DHT22;7654;45.308;-75.096;2023-07-29T15:33:10;18.90;99.90
15107;DHT22;7654;45.308;-75.096;2023-07-29T15:35:43;18.90;99.90
15107;DHT22;7654;45.308;-75.096;2023-07-29T15:38:14;19.10;99.90
15107;DHT22;7654;45.308;-75.096;2023-07-29T15:40:44;19.20;99.90
15107;DHT22;7654;45.308;-75.096;2023-07-29T15:43:17;19.20;99.90